createdAt,value
2023-01-13T00:01:43.688Z,9.40
2023-01-13T00:03:46.687Z,9.30
2023-01-13T00:05:49.005Z,9.40
2023-01-13T00:07:51.452Z,9.50
2023-01-13T00:09:55.915Z,9.20
2023-01-13T00:11:58.300Z,9.20
2023-01-13T00:14:03.325Z,9.30
2023-01-13T00:16:08.329Z,9.10
2023-01-13T00:18:10.983Z,9.10
2023-01-13T00:20:14.023Z,9.00
2023-01-13T00:22:16.749Z,9.10
2023-01-13T00:24:19.027Z,8.90
2023-01-13T00:26:24.579Z,9.70
2023-01-13T00:28:27.277Z,8.80
2023-01-13T00:30:32.620Z,8.80
2023-01-13T00:32:35.010Z,8.70
2023-01-13T00:34:40.173Z,8.70
2023-01-13T00:36:42.585Z,8.70
2023-01-13T00:38:45.273Z,9.00
2023-01-13T00:40:55.795Z,8.70
2023-01-13T00:43:16.618Z,8.60
2023-01-13T00:45:18.916Z,8.60
2023-01-13T00:47:23.984Z,8.60
2023-01-13T00:49:26.278Z,8.60
2023-01-13T00:51:28.741Z,8.60
2023-01-13T00:53:36.100Z,8.50
2023-01-13T00:55:41.079Z,8.50
2023-01-13T00:57:43.806Z,8.50
2023-01-13T00:59:47.173Z,8.70
2023-01-13T01:01:51.126Z,9.00
2023-01-13T01:03:56.364Z,8.50
2023-01-13T01:06:04.896Z,8.50
2023-01-13T01:08:07.322Z,8.40
2023-01-13T01:10:11.335Z,8.40
2023-01-13T01:12:14.359Z,8.40
2023-01-13T01:14:20.728Z,8.40
2023-01-13T01:16:25.129Z,8.40
2023-01-13T01:18:27.519Z,8.30
2023-01-13T01:20:32.682Z,8.40
2023-01-13T01:22:35.202Z,8.30
2023-01-13T01:24:37.737Z,8.30
2023-01-13T01:26:41.996Z,8.30
2023-01-13T01:28:45.380Z,8.30
2023-01-13T01:30:47.956Z,8.20
2023-01-13T01:32:50.264Z,8.20
2023-01-13T01:34:52.725Z,8.50
2023-01-13T01:36:57.868Z,8.50
2023-01-13T01:39:00.426Z,9.30
2023-01-13T01:41:03.014Z,8.20
2023-01-13T01:43:32.995Z,9.10
2023-01-13T01:45:36.740Z,8.20
2023-01-13T01:47:39.978Z,8.30
2023-01-13T01:49:44.341Z,9.30
2023-01-13T01:51:50.224Z,8.30
2023-01-13T01:53:58.684Z,8.20
2023-01-13T01:56:01.640Z,8.20
2023-01-13T01:58:09.487Z,9.40
2023-01-13T02:00:14.115Z,8.20
2023-01-13T02:02:16.980Z,8.20
2023-01-13T02:04:23.371Z,8.20
2023-01-13T02:06:25.991Z,8.20
2023-01-13T02:08:29.181Z,8.20
2023-01-13T02:10:34.830Z,8.20
2023-01-13T02:12:38.555Z,8.20
2023-01-13T02:14:42.155Z,8.60
2023-01-13T02:16:54.680Z,9.00
2023-01-13T02:19:10.004Z,8.60
2023-01-13T02:21:28.052Z,8.30
2023-01-13T02:24:18.509Z,9.40
2023-01-13T02:26:54.250Z,8.30
2023-01-13T02:29:30.940Z,8.30
2023-01-13T02:31:43.227Z,8.30
2023-01-13T02:34:02.187Z,8.30
2023-01-13T02:36:10.597Z,8.90
2023-01-13T02:38:15.393Z,8.20
2023-01-13T02:40:23.686Z,8.20
2023-01-13T02:42:49.643Z,8.20
2023-01-13T02:44:55.884Z,9.20
2023-01-13T02:47:06.465Z,8.20
2023-01-13T02:49:13.346Z,8.20
2023-01-13T02:51:18.868Z,8.20
2023-01-13T02:53:25.276Z,8.30
2023-01-13T02:55:34.125Z,8.90
2023-01-13T02:57:39.540Z,8.20
2023-01-13T02:59:43.036Z,8.20
2023-01-13T03:01:46.984Z,9.30
2023-01-13T03:03:52.083Z,8.30
2023-01-13T03:06:00.470Z,8.30
2023-01-13T03:08:22.437Z,8.40
2023-01-13T03:10:41.791Z,8.30
2023-01-13T03:12:51.547Z,8.30
2023-01-13T03:15:00.265Z,8.40
2023-01-13T03:17:22.159Z,8.30
2023-01-13T03:19:36.411Z,8.30
2023-01-13T03:21:44.666Z,8.30
2023-01-13T03:23:51.656Z,8.30
2023-01-13T03:26:02.924Z,8.30
2023-01-13T03:28:09.295Z,9.00
2023-01-13T03:30:19.750Z,8.20
2023-01-13T03:32:25.438Z,8.20
2023-01-13T03:34:34.927Z,8.20
2023-01-13T03:36:40.503Z,8.20
2023-01-13T03:38:46.645Z,8.70
2023-01-13T03:40:54.554Z,8.30
2023-01-13T03:43:25.016Z,8.30
2023-01-13T03:45:29.442Z,8.30
2023-01-13T03:47:38.485Z,8.30
2023-01-13T03:49:49.913Z,8.40
2023-01-13T03:51:56.227Z,8.30
2023-01-13T03:54:03.170Z,8.30
2023-01-13T03:56:10.035Z,9.20
2023-01-13T03:58:18.006Z,8.30
2023-01-13T04:00:23.255Z,8.80
2023-01-13T04:02:36.944Z,8.30
2023-01-13T04:04:51.093Z,8.40
2023-01-13T04:06:58.097Z,8.40
2023-01-13T04:09:07.694Z,8.40
2023-01-13T04:11:14.784Z,8.30
2023-01-13T04:13:21.110Z,8.30
2023-01-13T04:15:28.121Z,8.30
2023-01-13T04:17:30.750Z,8.20
2023-01-13T04:19:35.200Z,8.20
2023-01-13T04:21:40.252Z,8.20
2023-01-13T04:23:42.547Z,8.20
2023-01-13T04:25:45.600Z,8.20
2023-01-13T04:27:47.935Z,8.20
2023-01-13T04:29:50.544Z,8.20
2023-01-13T04:31:53.908Z,8.20
2023-01-13T04:33:56.425Z,8.20
2023-01-13T04:35:58.823Z,9.40
2023-01-13T04:38:05.464Z,7.40
2023-01-13T04:40:09.549Z,8.20
2023-01-13T04:42:11.914Z,8.20
2023-01-13T04:44:14.308Z,8.20
2023-01-13T04:46:16.696Z,8.10
2023-01-13T04:48:19.066Z,8.20
2023-01-13T04:50:22.740Z,8.20
2023-01-13T04:52:25.188Z,8.20
2023-01-13T04:54:30.391Z,8.20
2023-01-13T04:56:35.803Z,8.30
2023-01-13T04:58:38.209Z,8.50
2023-01-13T05:00:40.659Z,8.30
2023-01-13T05:02:43.071Z,8.30
2023-01-13T05:04:45.717Z,8.30
2023-01-13T05:06:48.116Z,8.30
2023-01-13T05:08:51.173Z,8.30
2023-01-13T05:10:56.232Z,8.60
2023-01-13T05:13:28.095Z,8.40
2023-01-13T05:15:49.310Z,8.30
2023-01-13T05:17:51.912Z,8.40
2023-01-13T05:19:54.515Z,8.40
2023-01-13T05:22:15.301Z,8.40
2023-01-13T05:24:36.103Z,8.40
2023-01-13T05:26:41.828Z,8.50
2023-01-13T05:28:44.372Z,8.50
2023-01-13T05:30:49.485Z,8.50
2023-01-13T05:32:52.891Z,8.50
2023-01-13T05:34:56.011Z,8.50
2023-01-13T05:36:58.403Z,8.50
2023-01-13T05:39:00.793Z,8.50
2023-01-13T05:41:22.182Z,8.40
2023-01-13T05:43:27.931Z,8.40
2023-01-13T05:45:31.198Z,8.50
2023-01-13T05:47:33.627Z,8.50
2023-01-13T05:49:36.112Z,9.40
2023-01-13T05:51:38.528Z,9.60
2023-01-13T05:53:41.157Z,8.90
2023-01-13T05:55:44.221Z,8.50
2023-01-13T05:57:46.630Z,8.50
2023-01-13T05:59:51.555Z,8.50
2023-01-13T06:01:54.022Z,8.50
2023-01-13T06:03:56.420Z,8.50
2023-01-13T06:06:01.819Z,8.50
2023-01-13T06:08:06.595Z,8.50
2023-01-13T06:10:10.591Z,8.40
2023-01-13T06:12:13.745Z,8.40
2023-01-13T06:14:16.329Z,8.40
2023-01-13T06:16:21.502Z,8.50
2023-01-13T06:18:26.587Z,8.40
2023-01-13T06:20:28.996Z,8.40
2023-01-13T06:22:33.042Z,9.20
2023-01-13T06:24:35.950Z,8.50
2023-01-13T06:26:40.230Z,8.40
2023-01-13T06:28:42.462Z,8.70
2023-01-13T06:30:48.032Z,8.50
2023-01-13T06:32:55.871Z,8.50
2023-01-13T06:35:05.526Z,8.50
2023-01-13T06:37:08.197Z,8.40
2023-01-13T06:39:13.562Z,8.40
2023-01-13T06:41:16.778Z,8.50
2023-01-13T06:43:19.269Z,8.40
2023-01-13T06:45:22.596Z,9.10
2023-01-13T06:47:28.149Z,8.60
2023-01-13T06:49:33.184Z,8.40
2023-01-13T06:51:35.662Z,8.40
2023-01-13T06:53:38.290Z,9.20
2023-01-13T06:55:40.936Z,8.30
2023-01-13T06:57:53.487Z,8.20
2023-01-13T06:59:55.959Z,8.10
2023-01-13T07:01:58.467Z,8.10
2023-01-13T07:04:01.079Z,8.10
2023-01-13T07:06:06.612Z,8.00
2023-01-13T07:08:09.848Z,8.00
2023-01-13T07:10:14.611Z,8.00
2023-01-13T07:12:17.005Z,8.00
2023-01-13T07:14:38.213Z,8.00
2023-01-13T07:16:40.607Z,7.90
2023-01-13T07:18:42.997Z,7.90
2023-01-13T07:20:52.416Z,7.90
2023-01-13T07:22:58.234Z,7.90
2023-01-13T07:25:00.626Z,7.90
2023-01-13T07:27:04.866Z,7.80
2023-01-13T07:29:07.059Z,7.70
2023-01-13T07:31:15.303Z,7.70
2023-01-13T07:33:18.909Z,7.80
2023-01-13T07:35:23.571Z,8.50
2023-01-13T07:37:25.892Z,7.70
2023-01-13T07:39:30.868Z,7.70
2023-01-13T07:41:51.545Z,7.60
2023-01-13T07:43:53.898Z,7.60
2023-01-13T07:45:58.987Z,7.60
2023-01-13T07:48:01.498Z,7.60
2023-01-13T07:50:04.561Z,7.50
2023-01-13T07:52:07.027Z,7.50
2023-01-13T07:54:09.473Z,7.50
2023-01-13T07:56:14.599Z,7.50
2023-01-13T07:58:17.038Z,7.50
2023-01-13T08:00:23.369Z,7.70
2023-01-13T08:02:28.912Z,6.90
2023-01-13T08:04:31.369Z,7.50
2023-01-13T08:06:34.146Z,7.50
2023-01-13T08:08:37.168Z,7.40
2023-01-13T08:10:39.596Z,7.50
2023-01-13T08:13:03.007Z,7.50
2023-01-13T08:15:07.014Z,7.50
2023-01-13T08:17:09.989Z,7.50
2023-01-13T08:19:12.333Z,7.60
2023-01-13T08:21:15.739Z,7.60
2023-01-13T08:23:18.501Z,7.60
2023-01-13T08:25:20.972Z,7.60
2023-01-13T08:27:23.504Z,8.40
2023-01-13T08:29:28.451Z,7.70
2023-01-13T08:31:30.913Z,7.70
2023-01-13T08:33:33.776Z,7.90
2023-01-13T08:35:38.166Z,7.70
2023-01-13T08:37:41.638Z,7.70
2023-01-13T08:39:44.052Z,7.80
2023-01-13T08:42:04.123Z,7.80
2023-01-13T08:44:09.141Z,7.80
2023-01-13T08:46:14.227Z,7.80
2023-01-13T08:48:16.615Z,7.90
2023-01-13T08:50:21.014Z,7.90
2023-01-13T08:52:23.576Z,8.40
2023-01-13T08:54:26.085Z,8.00
2023-01-13T08:56:28.601Z,8.00
2023-01-13T08:58:31.123Z,8.00
2023-01-13T09:00:33.538Z,8.00
2023-01-13T09:02:39.666Z,8.00
2023-01-13T09:04:42.935Z,8.00
2023-01-13T09:06:45.634Z,8.00
2023-01-13T09:08:48.198Z,8.00
2023-01-13T09:10:53.030Z,8.10
2023-01-13T09:13:13.659Z,8.80
2023-01-13T09:15:18.598Z,8.00
2023-01-13T09:17:21.188Z,7.90
2023-01-13T09:19:26.953Z,7.90
2023-01-13T09:21:29.324Z,7.80
2023-01-13T09:23:32.054Z,7.80
2023-01-13T09:25:36.738Z,7.80
2023-01-13T09:27:39.199Z,7.70
2023-01-13T09:29:41.612Z,7.80
2023-01-13T09:31:44.551Z,7.70
2023-01-13T09:34:05.734Z,7.70
2023-01-13T09:36:11.688Z,6.90
2023-01-13T09:38:14.205Z,7.60
2023-01-13T09:40:20.425Z,7.60
2023-01-13T09:42:49.815Z,7.60
2023-01-13T09:44:58.664Z,7.50
2023-01-13T09:47:07.088Z,7.60
2023-01-13T09:49:16.007Z,7.60
2023-01-13T09:51:30.466Z,8.20
2023-01-13T09:53:38.513Z,7.50
2023-01-13T09:55:41.101Z,7.60
2023-01-13T09:57:43.490Z,7.50
2023-01-13T09:59:46.115Z,7.90
2023-01-13T10:01:58.604Z,7.60
2023-01-13T10:04:04.058Z,8.10
2023-01-13T10:06:13.632Z,8.70
2023-01-13T10:08:23.408Z,7.60
2023-01-13T10:10:35.603Z,7.50
2023-01-13T10:12:56.496Z,7.40
2023-01-13T10:14:58.996Z,7.50
2023-01-13T10:17:06.540Z,7.50
2023-01-13T10:19:18.860Z,7.50
2023-01-13T10:21:42.840Z,8.00
2023-01-13T10:24:01.523Z,7.50
2023-01-13T10:26:17.929Z,7.60
2023-01-13T10:28:23.922Z,8.00
2023-01-13T10:30:31.937Z,7.70
2023-01-13T10:32:34.243Z,7.70
2023-01-13T10:34:48.699Z,7.70
2023-01-13T10:37:00.594Z,7.70
2023-01-13T10:39:16.099Z,8.70
2023-01-13T10:41:24.017Z,7.70
2023-01-13T10:43:27.520Z,8.20
2023-01-13T10:45:29.868Z,7.70
2023-01-13T10:47:34.579Z,7.70
2023-01-13T10:49:38.862Z,7.80
2023-01-13T10:51:44.540Z,7.80
2023-01-13T10:53:52.270Z,8.60
2023-01-13T10:56:05.746Z,8.70
2023-01-13T10:58:17.436Z,7.90
2023-01-13T11:00:28.849Z,7.90
2023-01-13T11:02:33.368Z,7.90
2023-01-13T11:04:37.723Z,7.90
2023-01-13T11:06:47.353Z,7.50
2023-01-13T11:08:52.526Z,8.00
2023-01-13T11:10:57.406Z,7.90
2023-01-13T11:13:05.703Z,8.00
2023-01-13T11:15:14.448Z,8.60
2023-01-13T11:17:32.593Z,8.00
2023-01-13T11:19:38.039Z,8.00
2023-01-13T11:21:49.797Z,8.00
2023-01-13T11:24:01.468Z,8.00
2023-01-13T11:26:11.868Z,8.00
2023-01-13T11:28:34.605Z,8.30
2023-01-13T11:30:42.932Z,8.10
2023-01-13T11:33:00.866Z,8.10
2023-01-13T11:35:14.953Z,8.10
2023-01-13T11:37:23.161Z,8.20
2023-01-13T11:39:30.319Z,8.20
2023-01-13T11:41:43.308Z,8.30
2023-01-13T11:43:54.862Z,8.30
2023-01-13T11:45:59.861Z,8.30
2023-01-13T11:48:02.713Z,8.30
2023-01-13T11:50:13.815Z,8.90
2023-01-13T11:52:21.248Z,8.40
2023-01-13T11:54:47.182Z,8.40
2023-01-13T11:57:23.736Z,8.50
2023-01-13T11:59:54.663Z,8.50
2023-01-13T12:02:14.408Z,8.60
2023-01-13T12:04:26.245Z,8.50
2023-01-13T12:06:34.681Z,8.60
2023-01-13T12:08:54.010Z,8.60
2023-01-13T12:11:05.562Z,8.60
2023-01-13T12:13:17.584Z,8.60
2023-01-13T12:15:47.311Z,9.20
2023-01-13T12:18:01.432Z,8.60
2023-01-13T12:20:17.513Z,8.60
2023-01-13T12:22:25.278Z,8.60
2023-01-13T12:24:31.522Z,8.60
2023-01-13T12:26:39.025Z,8.60
2023-01-13T12:28:47.326Z,8.60
2023-01-13T12:30:57.675Z,8.60
2023-01-13T12:33:13.620Z,8.60
2023-01-13T12:35:27.244Z,8.70
2023-01-13T12:37:37.573Z,8.70
2023-01-13T12:39:48.628Z,8.70
2023-01-13T12:42:16.899Z,8.80
2023-01-13T12:44:20.448Z,9.60
2023-01-13T12:46:56.045Z,9.50
2023-01-13T12:49:17.821Z,9.00
2023-01-13T12:51:25.120Z,9.00
2023-01-13T12:53:36.363Z,9.00
2023-01-13T12:55:38.838Z,8.80
2023-01-13T12:57:59.423Z,9.00
2023-01-13T13:00:15.064Z,9.00
2023-01-13T13:02:37.989Z,9.00
2023-01-13T13:04:49.767Z,9.00
2023-01-13T13:06:57.684Z,9.10
2023-01-13T13:09:04.451Z,9.10
2023-01-13T13:11:42.551Z,10.40
2023-01-13T13:13:47.081Z,9.20
2023-01-13T13:15:51.218Z,9.80
2023-01-13T13:18:25.185Z,9.20
2023-01-13T13:20:58.475Z,9.20
2023-01-13T13:23:00.864Z,9.10
2023-01-13T13:25:25.307Z,9.20
2023-01-13T13:27:33.021Z,9.20
2023-01-13T13:29:50.205Z,9.20
2023-01-13T13:32:19.436Z,9.20
2023-01-13T13:34:32.058Z,9.20
2023-01-13T13:36:59.251Z,9.10
2023-01-13T13:39:37.147Z,9.10
2023-01-13T13:42:03.944Z,9.10
2023-01-13T13:44:35.113Z,9.10
2023-01-13T13:46:49.348Z,9.00
2023-01-13T13:48:54.065Z,9.10
2023-01-13T13:51:05.865Z,9.00
2023-01-13T13:53:09.341Z,9.00
2023-01-13T13:55:20.309Z,9.40
2023-01-13T13:57:29.626Z,8.90
2023-01-13T13:59:33.807Z,8.90
2023-01-13T14:01:38.424Z,9.40
2023-01-13T14:03:40.954Z,9.00
2023-01-13T14:05:53.776Z,9.00
2023-01-13T14:08:03.673Z,9.00
2023-01-13T14:10:14.548Z,9.00
2023-01-13T14:12:18.880Z,9.00
2023-01-13T14:14:21.228Z,8.90
2023-01-13T14:16:23.620Z,9.00
2023-01-13T14:18:27.900Z,8.90
2023-01-13T14:20:30.558Z,8.90
2023-01-13T14:22:33.215Z,8.90
2023-01-13T14:24:46.607Z,9.40
2023-01-13T14:26:53.284Z,8.90
2023-01-13T14:28:58.530Z,9.00
2023-01-13T14:31:01.598Z,8.90
2023-01-13T14:33:05.300Z,8.80
2023-01-13T14:35:08.951Z,8.70
2023-01-13T14:37:29.292Z,8.70
2023-01-13T14:39:40.630Z,8.60
2023-01-13T14:41:48.476Z,8.80
2023-01-13T14:43:54.402Z,8.50
2023-01-13T14:45:58.941Z,8.50
2023-01-13T14:48:22.101Z,8.50
2023-01-13T14:50:31.473Z,8.50
2023-01-13T14:52:35.439Z,8.50
2023-01-13T14:54:45.179Z,8.60
2023-01-13T14:57:13.799Z,8.80
2023-01-13T14:59:35.911Z,8.60
2023-01-13T15:01:39.642Z,8.70
2023-01-13T15:03:42.823Z,8.80
2023-01-13T15:05:47.861Z,9.50
2023-01-13T15:07:51.679Z,8.90
2023-01-13T15:09:59.908Z,8.80
2023-01-13T15:12:18.373Z,8.80
2023-01-13T15:14:26.278Z,8.90
2023-01-13T15:16:30.012Z,9.10
2023-01-13T15:18:33.187Z,8.90
2023-01-13T15:20:35.530Z,8.90
2023-01-13T15:22:38.003Z,8.90
2023-01-13T15:24:40.555Z,8.90
2023-01-13T15:26:45.565Z,8.90
2023-01-13T15:28:48.717Z,8.80
2023-01-13T15:30:52.853Z,8.80
2023-01-13T15:32:57.003Z,9.10
2023-01-13T15:34:59.386Z,8.70
2023-01-13T15:37:01.760Z,8.80
2023-01-13T15:39:04.535Z,8.70
2023-01-13T15:41:09.574Z,8.70
2023-01-13T15:43:34.380Z,8.70
2023-01-13T15:45:56.621Z,8.70
2023-01-13T15:47:59.863Z,8.70
2023-01-13T15:50:02.949Z,8.60
2023-01-13T15:52:17.872Z,8.60
2023-01-13T15:54:24.684Z,8.60
2023-01-13T15:56:27.729Z,8.60
2023-01-13T15:58:32.669Z,8.80
2023-01-13T16:00:35.166Z,8.70
2023-01-13T16:02:37.605Z,8.70
2023-01-13T16:04:40.084Z,8.80
2023-01-13T16:06:42.718Z,8.80
2023-01-13T16:08:45.485Z,8.80
2023-01-13T16:10:48.991Z,8.80
2023-01-13T16:12:51.386Z,8.80
2023-01-13T16:14:56.363Z,8.70
2023-01-13T16:16:59.040Z,8.70
2023-01-13T16:19:01.421Z,8.70
2023-01-13T16:21:04.147Z,8.70
2023-01-13T16:23:06.536Z,8.70
2023-01-13T16:25:15.325Z,8.60
2023-01-13T16:27:19.375Z,8.60
2023-01-13T16:29:21.799Z,8.60
2023-01-13T16:31:32.356Z,8.50
2023-01-13T16:33:34.844Z,8.40
2023-01-13T16:35:37.191Z,8.40
2023-01-13T16:37:59.976Z,8.30
2023-01-13T16:40:02.771Z,8.20
2023-01-13T16:42:06.003Z,8.10
2023-01-13T16:44:08.476Z,8.00
2023-01-13T16:46:18.766Z,7.90
2023-01-13T16:48:23.797Z,7.90
2023-01-13T16:50:35.812Z,7.90
2023-01-13T16:52:38.140Z,7.80
2023-01-13T16:54:40.734Z,7.80
2023-01-13T16:56:43.218Z,7.90
2023-01-13T16:58:45.831Z,7.90
2023-01-13T17:00:48.509Z,8.70
2023-01-13T17:02:50.966Z,8.20
2023-01-13T17:04:57.450Z,8.10
2023-01-13T17:07:03.830Z,8.00
2023-01-13T17:09:08.457Z,8.00
2023-01-13T17:11:10.966Z,8.00
2023-01-13T17:13:16.991Z,7.90
2023-01-13T17:15:21.206Z,8.60
2023-01-13T17:17:25.631Z,8.00
2023-01-13T17:19:28.419Z,7.90
2023-01-13T17:21:33.706Z,8.50
2023-01-13T17:23:36.482Z,7.90
2023-01-13T17:25:40.348Z,7.90
2023-01-13T17:27:42.929Z,7.90
2023-01-13T17:29:45.890Z,7.80
2023-01-13T17:31:48.613Z,7.80
2023-01-13T17:33:50.976Z,7.80
2023-01-13T17:35:53.396Z,7.80
2023-01-13T17:37:58.425Z,7.90
2023-01-13T17:40:00.941Z,7.80
2023-01-13T17:42:05.744Z,7.90
2023-01-13T17:44:10.092Z,7.90
2023-01-13T17:46:18.584Z,8.00
2023-01-13T17:48:20.976Z,7.90
2023-01-13T17:50:23.468Z,8.00
2023-01-13T17:52:25.808Z,8.10
2023-01-13T17:54:30.804Z,8.10
2023-01-13T17:56:33.271Z,8.10
2023-01-13T17:58:37.262Z,8.10
2023-01-13T18:00:39.617Z,8.50
2023-01-13T18:02:41.917Z,8.20
2023-01-13T18:04:44.275Z,8.20
2023-01-13T18:06:47.249Z,8.20
2023-01-13T18:08:50.064Z,8.30
2023-01-13T18:10:57.863Z,8.20
2023-01-13T18:13:03.560Z,8.20
2023-01-13T18:15:07.772Z,8.20
2023-01-13T18:17:10.512Z,8.20
2023-01-13T18:19:31.354Z,8.20
2023-01-13T18:21:52.325Z,8.90
2023-01-13T18:24:13.305Z,8.30
2023-01-13T18:26:38.587Z,8.20
2023-01-13T18:28:41.017Z,8.20
2023-01-13T18:30:43.377Z,8.30
2023-01-13T18:32:48.830Z,8.30
2023-01-13T18:35:01.601Z,8.30
2023-01-13T18:37:08.971Z,8.30
2023-01-13T18:39:11.582Z,8.30
2023-01-13T18:41:32.645Z,8.30
2023-01-13T18:43:37.596Z,8.30
2023-01-13T18:45:40.681Z,8.40
2023-01-13T18:47:43.072Z,8.40
2023-01-13T18:49:45.525Z,8.40
2023-01-13T18:51:47.918Z,8.40
2023-01-13T18:53:50.351Z,8.50
2023-01-13T18:55:53.727Z,8.50
2023-01-13T18:57:56.308Z,8.50
2023-01-13T19:00:01.764Z,8.50
2023-01-13T19:02:09.231Z,8.40
2023-01-13T19:04:18.250Z,8.40
2023-01-13T19:06:21.092Z,8.40
2023-01-13T19:08:23.563Z,8.40
2023-01-13T19:10:28.044Z,8.40
2023-01-13T19:12:31.280Z,8.40
2023-01-13T19:14:34.772Z,8.40
2023-01-13T19:16:40.075Z,9.20
2023-01-13T19:18:42.461Z,8.30
2023-01-13T19:20:44.818Z,8.30
2023-01-13T19:22:53.953Z,8.20
2023-01-13T19:24:56.947Z,8.20
2023-01-13T19:26:59.572Z,8.20
2023-01-13T19:29:02.078Z,8.20
2023-01-13T19:31:06.931Z,8.30
2023-01-13T19:33:12.029Z,8.30
2023-01-13T19:35:17.786Z,8.30
2023-01-13T19:37:20.164Z,8.30
2023-01-13T19:39:23.486Z,8.30
2023-01-13T19:41:44.544Z,8.40
2023-01-13T19:44:05.216Z,8.30
2023-01-13T19:46:08.443Z,8.30
2023-01-13T19:48:16.207Z,8.40
2023-01-13T19:50:21.745Z,8.40
2023-01-13T19:52:24.519Z,8.40
2023-01-13T19:54:27.135Z,8.40
2023-01-13T19:56:30.828Z,8.40
2023-01-13T19:58:33.467Z,8.40
2023-01-13T20:00:35.857Z,8.90
2023-01-13T20:02:44.937Z,8.00
2023-01-13T20:04:49.952Z,8.00
2023-01-13T20:06:52.468Z,7.90
2023-01-13T20:08:54.767Z,7.60
2023-01-13T20:11:17.056Z,7.60
2023-01-13T20:13:19.393Z,8.10
2023-01-13T20:15:21.953Z,7.50
2023-01-13T20:17:26.370Z,7.40
2023-01-13T20:19:28.817Z,7.30
2023-01-13T20:21:33.783Z,7.20
2023-01-13T20:23:36.322Z,7.20
2023-01-13T20:25:42.080Z,7.10
2023-01-13T20:27:45.478Z,7.60
2023-01-13T20:29:49.200Z,6.90
2023-01-13T20:31:51.598Z,6.90
2023-01-13T20:33:53.974Z,6.90
2023-01-13T20:35:59.440Z,6.80
2023-01-13T20:38:04.391Z,6.90
2023-01-13T20:40:08.781Z,6.80
2023-01-13T20:42:29.329Z,6.80
2023-01-13T20:44:32.039Z,6.80
2023-01-13T20:46:35.221Z,6.70
2023-01-13T20:48:38.255Z,6.80
2023-01-13T20:50:40.627Z,6.80
2023-01-13T20:52:43.645Z,6.80
2023-01-13T20:54:49.273Z,6.80
2023-01-13T20:56:51.843Z,6.90
2023-01-13T20:58:54.292Z,6.90
2023-01-13T21:00:59.287Z,7.00
2023-01-13T21:03:01.679Z,6.90
2023-01-13T21:05:04.436Z,7.00
2023-01-13T21:07:09.386Z,7.00
2023-01-13T21:09:12.187Z,7.90
2023-01-13T21:11:37.257Z,7.10
2023-01-13T21:13:58.506Z,7.10
2023-01-13T21:16:00.893Z,7.20
2023-01-13T21:18:21.951Z,7.20
2023-01-13T21:20:24.359Z,7.20
2023-01-13T21:22:27.013Z,7.20
2023-01-13T21:24:29.545Z,7.20
2023-01-13T21:26:34.941Z,7.10
2023-01-13T21:28:37.414Z,7.20
2023-01-13T21:30:40.035Z,7.10
2023-01-13T21:32:43.392Z,7.20
2023-01-13T21:34:45.769Z,7.20
2023-01-13T21:36:48.136Z,7.20
2023-01-13T21:38:53.833Z,7.20
2023-01-13T21:41:00.365Z,7.20
2023-01-13T21:43:24.346Z,7.10
2023-01-13T21:45:45.820Z,7.10
2023-01-13T21:47:50.038Z,7.10
2023-01-13T21:49:52.603Z,7.60
2023-01-13T21:51:55.063Z,7.10
2023-01-13T21:53:57.627Z,7.00
2023-01-13T21:56:00.064Z,7.10
2023-01-13T21:58:11.722Z,7.00
2023-01-13T22:00:15.257Z,7.00
2023-01-13T22:02:31.920Z,7.00
2023-01-13T22:04:34.377Z,7.00
2023-01-13T22:06:36.733Z,6.90
2023-01-13T22:08:39.225Z,6.90
2023-01-13T22:11:00.417Z,6.90
2023-01-13T22:13:24.113Z,6.90
2023-01-13T22:15:31.004Z,7.40
2023-01-13T22:17:34.240Z,7.50
2023-01-13T22:19:39.255Z,8.30
2023-01-13T22:21:41.936Z,7.00
2023-01-13T22:23:44.745Z,7.10
2023-01-13T22:25:47.155Z,6.50
2023-01-13T22:27:49.691Z,7.10
2023-01-13T22:29:53.267Z,7.10
2023-01-13T22:31:58.453Z,7.10
2023-01-13T22:34:01.223Z,7.60
2023-01-13T22:36:11.919Z,7.10
2023-01-13T22:38:14.544Z,7.10
2023-01-13T22:40:17.291Z,7.80
2023-01-13T22:42:20.433Z,7.10
2023-01-13T22:44:23.377Z,7.20
2023-01-13T22:46:27.213Z,7.10
2023-01-13T22:48:33.910Z,7.00
2023-01-13T22:50:36.305Z,7.00
2023-01-13T22:52:41.913Z,7.00
2023-01-13T22:54:44.704Z,7.00
2023-01-13T22:56:47.168Z,7.00
2023-01-13T22:58:53.633Z,7.00
2023-01-13T23:01:07.900Z,7.00
2023-01-13T23:03:10.228Z,7.10
2023-01-13T23:05:15.750Z,7.00
2023-01-13T23:07:21.735Z,7.10
2023-01-13T23:09:24.764Z,7.10
2023-01-13T23:11:29.884Z,7.10
2023-01-13T23:13:38.032Z,7.90
2023-01-13T23:15:41.528Z,7.10
2023-01-13T23:17:48.734Z,7.20
2023-01-13T23:19:51.286Z,7.20
2023-01-13T23:21:58.983Z,7.20
2023-01-13T23:24:03.480Z,7.20
2023-01-13T23:26:10.771Z,7.20
2023-01-13T23:28:13.415Z,7.20
2023-01-13T23:30:16.295Z,7.10
2023-01-13T23:32:19.070Z,7.10
2023-01-13T23:34:27.421Z,7.10
2023-01-13T23:36:30.361Z,7.10
2023-01-13T23:38:36.578Z,7.10
2023-01-13T23:40:38.977Z,7.10
2023-01-13T23:42:41.415Z,7.20
2023-01-13T23:44:43.923Z,7.20
2023-01-13T23:46:46.427Z,7.10
2023-01-13T23:48:50.298Z,7.10
2023-01-13T23:51:00.318Z,7.10
2023-01-13T23:53:02.705Z,7.10
2023-01-13T23:55:09.672Z,7.20
2023-01-13T23:57:12.239Z,7.20
2023-01-13T23:59:14.661Z,7.20
